Time;durP1;ratioP1;P1;durP2;ratioP2;P2;SDS_P1;SDS_P2;PMS_P1;PMS_P2;Temp;Humidity;BMP_temperature;BMP_pressure;BME280_temperature;BME280_humidity;BME280_pressure;Samples;Min_cycle;Max_cycle;Signal;HPM_P1;HPM_P2
2023/10/15 00:00:40;;;;;;;5.60;2.22;;;12.90;98.80;;;;;;4249022;27;20056;-55
2023/10/15 00:02:44;;;;;;;3.65;1.55;;;12.80;98.70;;;;;;4248845;27;20069;-56
2023/10/15 00:04:47;;;;;;;9.80;2.03;;;12.80;98.70;;;;;;4248652;27;20070;-55
2023/10/15 00:06:51;;;;;;;3.72;1.45;;;12.80;98.80;;;;;;4230493;28;20082;-55
2023/10/15 00:08:53;;;;;;;4.85;1.60;;;12.80;99.00;;;;;;4249206;27;20063;-56
2023/10/15 00:10:55;;;;;;;6.95;2.15;;;12.80;98.90;;;;;;4251707;27;20404;-55
2023/10/15 00:12:58;;;;;;;8.38;2.05;;;12.80;99.10;;;;;;4251367;27;20044;-56
2023/10/15 00:15:00;;;;;;;4.85;1.75;;;12.80;99.10;;;;;;4250902;27;20043;-58
2023/10/15 00:17:05;;;;;;;5.70;1.77;;;12.70;98.90;;;;;;4248972;27;20047;-55
2023/10/15 00:19:10;;;;;;;;;;;12.50;98.90;;;;;;4248885;27;20138;-56
2023/10/15 00:21:13;;;;;;;8.00;2.40;;;12.60;99.00;;;;;;4248649;27;20009;-55
2023/10/15 00:23:17;;;;;;;3.92;1.58;;;12.50;99.10;;;;;;4248333;27;20061;-54
2023/10/15 00:25:20;;;;;;;4.72;1.77;;;12.50;99.20;;;;;;4248548;27;20039;-55
2023/10/15 00:27:22;;;;;;;7.72;1.70;;;12.50;99.20;;;;;;4248184;27;20047;-54
2023/10/15 00:29:25;;;;;;;8.93;2.00;;;12.50;99.40;;;;;;4248654;27;20054;-54
2023/10/15 00:31:28;;;;;;;5.80;1.92;;;12.50;99.20;;;;;;4248608;27;20046;-54
2023/10/15 00:33:30;;;;;;;6.15;1.60;;;12.50;99.30;;;;;;4248213;27;20088;-55
2023/10/15 00:35:36;;;;;;;5.43;1.75;;;12.50;99.40;;;;;;4248801;27;20051;-55
2023/10/15 00:37:41;;;;;;;5.93;1.63;;;12.60;99.40;;;;;;4248920;27;20078;-60
2023/10/15 00:39:44;;;;;;;5.25;1.73;;;12.50;99.10;;;;;;4249653;27;20104;-57
2023/10/15 00:41:47;;;;;;;7.10;1.90;;;12.50;99.50;;;;;;4249167;27;20063;-56
2023/10/15 00:43:59;;;;;;;4.78;1.60;;;12.50;99.30;;;;;;4247798;27;20577;-57
2023/10/15 00:46:03;;;;;;;6.55;2.05;;;12.50;99.40;;;;;;4247692;27;20096;-56
2023/10/15 00:50:09;;;;;;;6.97;2.05;;;12.50;99.40;;;;;;4248058;27;20047;-56
2023/10/15 00:52:11;;;;;;;4.38;1.55;;;12.40;99.40;;;;;;4247147;27;20074;-57
2023/10/15 00:54:16;;;;;;;5.70;2.05;;;12.40;99.60;;;;;;4247600;27;20133;-57
2023/10/15 00:56:23;;;;;;;8.82;1.65;;;12.40;99.70;;;;;;4248092;27;20051;-56
2023/10/15 00:58:33;;;;;;;5.68;2.13;;;12.40;99.60;;;;;;4248134;27;20047;-56
2023/10/15 01:00:52;;;;;;;4.53;1.80;;;12.40;99.70;;;;;;4229812;28;20051;-60
2023/10/15 01:02:56;;;;;;;7.72;1.75;;;12.40;99.70;;;;;;4248934;27;20043;-57
2023/10/15 01:05:00;;;;;;;8.38;2.15;;;12.30;99.80;;;;;;4248174;27;20047;-57
2023/10/15 01:07:20;;;;;;;4.07;1.75;;;12.30;99.80;;;;;;4248027;27;20096;-57
2023/10/15 01:09:28;;;;;;;7.22;1.77;;;12.40;99.90;;;;;;4247690;27;20043;-57
2023/10/15 01:11:32;;;;;;;8.93;2.20;;;12.30;99.70;;;;;;4247858;27;20047;-57
2023/10/15 01:13:34;;;;;;;6.88;2.10;;;12.30;99.90;;;;;;4247505;27;20401;-55
2023/10/15 01:15:42;;;;;;;5.28;1.77;;;12.30;99.90;;;;;;4247619;28;20057;-56
2023/10/15 01:17:45;;;;;;;5.28;2.17;;;12.30;99.80;;;;;;4247587;27;20401;-56
2023/10/15 01:19:47;;;;;;;7.45;2.25;;;12.30;99.90;;;;;;4246849;28;20044;-55
2023/10/15 01:21:53;;;;;;;3.38;1.65;;;12.30;99.90;;;;;;4247460;28;20118;-56
2023/10/15 01:24:04;;;;;;;6.40;2.03;;;12.30;99.90;;;;;;4229195;28;20254;-57
2023/10/15 01:26:17;;;;;;;4.65;1.65;;;12.20;99.90;;;;;;4247666;28;20389;-56
2023/10/15 01:28:21;;;;;;;5.68;2.10;;;12.20;99.90;;;;;;4247358;28;20051;-56
2023/10/15 01:30:35;;;;;;;8.85;2.50;;;12.20;99.90;;;;;;4247695;28;20514;-57
2023/10/15 01:32:38;;;;;;;9.80;1.90;;;12.30;99.90;;;;;;4248884;28;20050;-59
2023/10/15 01:34:44;;;;;;;7.35;2.00;;;12.30;99.90;;;;;;4249206;28;20047;-57
2023/10/15 01:36:47;;;;;;;7.20;2.00;;;12.40;99.90;;;;;;4249427;28;20051;-57
2023/10/15 01:38:55;;;;;;;7.32;1.95;;;12.40;99.90;;;;;;4248508;28;20043;-57
2023/10/15 01:40:57;;;;;;;7.45;1.92;;;12.40;99.90;;;;;;4247409;28;20071;-57
2023/10/15 01:43:06;;;;;;;5.35;1.70;;;12.30;99.90;;;;;;4247656;28;20104;-57
2023/10/15 01:45:13;;;;;;;6.57;2.30;;;12.30;99.90;;;;;;4249411;27;20385;-57
2023/10/15 01:47:16;;;;;;;5.43;2.00;;;12.30;99.90;;;;;;4250664;27;20066;-57
2023/10/15 01:49:36;;;;;;;9.57;2.05;;;12.30;99.90;;;;;;4250167;27;20043;-56
2023/10/15 01:51:43;;;;;;;7.07;2.22;;;12.30;99.90;;;;;;4250393;27;20057;-57
2023/10/15 01:53:45;;;;;;;8.35;2.53;;;12.30;99.90;;;;;;4250546;27;20505;-57
2023/10/15 01:55:57;;;;;;;5.53;2.45;;;12.30;99.90;;;;;;4250746;27;20397;-57
2023/10/15 01:58:00;;;;;;;5.10;2.20;;;12.30;99.90;;;;;;4250889;27;20043;-57
2023/10/15 02:00:14;;;;;;;6.30;2.05;;;12.30;99.90;;;;;;4250795;27;20050;-57
2023/10/15 02:02:18;;;;;;;7.55;2.05;;;12.30;99.90;;;;;;4250521;27;20138;-57
2023/10/15 02:04:26;;;;;;;6.90;2.40;;;12.30;99.90;;;;;;4250007;27;20051;-57
2023/10/15 02:06:31;;;;;;;10.02;2.20;;;12.20;99.90;;;;;;4250877;27;20161;-58
2023/10/15 02:08:40;;;;;;;5.13;2.55;;;12.10;99.90;;;;;;4251753;27;20415;-56
2023/10/15 02:10:46;;;;;;;;;;;12.10;99.90;;;;;;4251143;27;20039;-57
2023/10/15 02:12:59;;;;;;;6.15;2.45;;;12.10;99.90;;;;;;4250420;27;19927;-57
2023/10/15 02:15:08;;;;;;;7.43;2.10;;;12.10;99.90;;;;;;4250423;27;20487;-57
2023/10/15 02:17:13;;;;;;;5.93;2.28;;;12.00;99.90;;;;;;4250102;27;20094;-56
2023/10/15 02:19:20;;;;;;;5.13;2.33;;;12.00;99.90;;;;;;4249735;27;20039;-57
2023/10/15 02:21:23;;;;;;;8.48;2.25;;;12.00;99.90;;;;;;4250073;27;20044;-57
2023/10/15 02:23:25;;;;;;;9.43;2.45;;;11.90;99.90;;;;;;4249992;27;20092;-57
2023/10/15 02:25:28;;;;;;;5.68;2.35;;;11.90;99.90;;;;;;4249117;27;20162;-57
2023/10/15 02:27:36;;;;;;;7.55;2.28;;;12.00;99.90;;;;;;4249970;27;20047;-57
2023/10/15 02:29:40;;;;;;;5.38;1.90;;;12.10;99.90;;;;;;4231813;28;20091;-56
2023/10/15 02:31:46;;;;;;;6.68;2.00;;;12.00;99.90;;;;;;4231528;28;20039;-57
2023/10/15 02:33:50;;;;;;;5.85;1.88;;;12.00;99.90;;;;;;4249872;27;20046;-57
2023/10/15 02:35:54;;;;;;;6.63;2.17;;;12.00;99.90;;;;;;4250069;27;20062;-61
2023/10/15 02:37:58;;;;;;;7.75;2.30;;;12.10;99.90;;;;;;4250013;27;20058;-57
2023/10/15 02:40:16;;;;;;;2.40;1.13;;;12.10;99.90;;;;;;4249869;27;20469;-57
2023/10/15 02:42:18;;;;;;;5.10;1.85;;;12.10;99.90;;;;;;4249714;27;20043;-57
2023/10/15 02:44:21;;;;;;;4.90;1.83;;;12.10;99.90;;;;;;4249988;27;20428;-56
2023/10/15 02:46:36;;;;;;;6.63;2.25;;;12.10;99.90;;;;;;4249536;27;20043;-58
2023/10/15 02:48:41;;;;;;;;;;;12.10;99.90;;;;;;4250374;27;20059;-56
2023/10/15 02:50:57;;;;;;;8.48;1.98;;;12.10;99.90;;;;;;4249806;27;19919;-57
2023/10/15 02:53:04;;;;;;;8.15;2.40;;;12.00;99.90;;;;;;4249981;27;20405;-57
2023/10/15 02:55:09;;;;;;;8.35;2.30;;;12.00;99.80;;;;;;4251273;27;20170;-57
2023/10/15 02:57:18;;;;;;;5.38;2.00;;;12.00;99.90;;;;;;4249036;27;20046;-57
2023/10/15 02:59:20;;;;;;;5.28;1.90;;;12.00;99.90;;;;;;4249567;27;20138;-57
2023/10/15 03:01:23;;;;;;;4.75;1.70;;;11.90;99.90;;;;;;4249172;27;20067;-56
2023/10/15 03:03:33;;;;;;;7.75;2.45;;;12.00;99.90;;;;;;4249647;27;20127;-57
2023/10/15 03:05:40;;;;;;;7.55;1.63;;;12.00;99.90;;;;;;4249364;27;20092;-57
2023/10/15 03:07:43;;;;;;;6.25;2.03;;;12.00;99.90;;;;;;4249413;27;20050;-56
2023/10/15 03:09:48;;;;;;;7.10;2.00;;;12.00;99.90;;;;;;4249155;27;20118;-56
2023/10/15 03:11:51;;;;;;;5.20;1.92;;;12.00;99.90;;;;;;4249573;27;20043;-56
2023/10/15 03:14:00;;;;;;;3.30;1.45;;;12.00;99.90;;;;;;4249370;27;20058;-57
2023/10/15 03:16:07;;;;;;;5.13;2.10;;;12.00;99.90;;;;;;4249018;27;20051;-57
2023/10/15 03:18:14;;;;;;;6.53;2.45;;;11.90;99.90;;;;;;4249918;27;20047;-61
2023/10/15 03:22:23;;;;;;;7.50;2.10;;;11.90;99.80;;;;;;4249778;27;20401;-60
2023/10/15 03:24:27;;;;;;;5.35;2.22;;;11.80;99.90;;;;;;4250528;27;20047;-58
2023/10/15 03:26:33;;;;;;;6.53;2.10;;;11.80;99.90;;;;;;4250406;27;20081;-57
2023/10/15 03:28:44;;;;;;;7.95;2.22;;;11.80;99.90;;;;;;4250304;27;20139;-57
2023/10/15 03:30:46;;;;;;;7.75;2.03;;;11.80;99.90;;;;;;4248920;27;20455;-56
2023/10/15 03:32:48;;;;;;;7.50;2.25;;;11.80;99.90;;;;;;4249224;27;20469;-56
2023/10/15 03:34:59;;;;;;;6.68;2.03;;;11.80;99.90;;;;;;4248996;27;20100;-57
2023/10/15 03:37:02;;;;;;;5.10;1.77;;;11.80;99.90;;;;;;4249038;27;20043;-56
2023/10/15 03:39:15;;;;;;;5.03;2.00;;;11.80;99.90;;;;;;4249218;27;20055;-57
2023/10/15 03:41:28;;;;;;;4.82;1.73;;;11.70;99.90;;;;;;4248718;27;20382;-57
2023/10/15 03:43:35;;;;;;;6.75;2.40;;;11.70;99.90;;;;;;4248669;27;20043;-57
2023/10/15 03:45:50;;;;;;;4.32;1.90;;;11.80;99.90;;;;;;4248655;27;20047;-56
2023/10/15 03:47:54;;;;;;;5.20;1.58;;;11.70;99.90;;;;;;4249080;27;20055;-57
2023/10/15 03:49:56;;;;;;;5.57;1.95;;;11.80;99.90;;;;;;4248753;27;20047;-57
2023/10/15 03:51:58;;;;;;;7.00;2.25;;;11.70;99.90;;;;;;4248442;27;20051;-57
2023/10/15 03:54:06;;;;;;;8.05;2.10;;;11.70;99.90;;;;;;4230459;28;20054;-57
2023/10/15 03:56:17;;;;;;;7.20;1.75;;;11.60;99.90;;;;;;4248516;27;20049;-56
2023/10/15 03:58:21;;;;;;;5.72;2.22;;;11.70;99.90;;;;;;4248792;27;20078;-57
2023/10/15 04:00:35;;;;;;;8.77;2.58;;;11.70;99.90;;;;;;4248521;27;20125;-57
2023/10/15 04:02:55;;;;;;;4.97;1.83;;;11.60;99.90;;;;;;4248865;27;20050;-57
2023/10/15 04:05:14;;;;;;;7.50;2.03;;;11.50;99.90;;;;;;4248623;27;20430;-57
2023/10/15 04:07:21;;;;;;;8.18;2.35;;;11.50;99.90;;;;;;4248554;27;20051;-57
2023/10/15 04:09:25;;;;;;;6.13;1.92;;;11.60;99.90;;;;;;4248636;27;20484;-57
2023/10/15 04:11:30;;;;;;;8.02;2.20;;;11.50;99.90;;;;;;4248359;27;20047;-57
2023/10/15 04:13:33;;;;;;;5.28;1.73;;;11.60;99.90;;;;;;4248303;27;20051;-57
2023/10/15 04:15:35;;;;;;;7.43;2.30;;;11.60;99.90;;;;;;4248441;27;20053;-57
2023/10/15 04:17:38;;;;;;;5.85;1.77;;;11.50;99.90;;;;;;4248527;27;20100;-57
2023/10/15 04:19:42;;;;;;;7.70;1.92;;;11.60;99.90;;;;;;4248553;27;20088;-57
2023/10/15 04:21:45;;;;;;;5.50;2.13;;;11.50;99.90;;;;;;4248410;27;20159;-57
2023/10/15 04:23:53;;;;;;;7.78;2.00;;;11.50;99.90;;;;;;4248165;27;20112;-58
2023/10/15 04:26:00;;;;;;;7.15;2.30;;;11.50;99.90;;;;;;4248228;27;20073;-57
2023/10/15 04:28:14;;;;;;;7.00;2.63;;;11.50;99.90;;;;;;4248053;27;20047;-57
2023/10/15 04:30:17;;;;;;;5.25;2.05;;;11.40;99.90;;;;;;4248187;27;20084;-57
2023/10/15 04:32:28;;;;;;;7.20;2.20;;;11.50;99.90;;;;;;4248355;27;20043;-57
2023/10/15 04:34:31;;;;;;;3.85;1.70;;;11.50;99.90;;;;;;4248425;27;20071;-57
2023/10/15 04:36:40;;;;;;;6.50;2.40;;;11.50;99.90;;;;;;4249082;27;20103;-58
2023/10/15 04:38:42;;;;;;;6.70;1.90;;;11.50;99.90;;;;;;4250048;27;20053;-62
2023/10/15 04:42:59;;;;;;;6.55;2.30;;;11.50;99.90;;;;;;4249445;27;20043;-59
2023/10/15 04:47:38;;;;;;;4.40;1.60;;;11.50;99.90;;;;;;4248185;27;20043;-57
2023/10/15 04:49:40;;;;;;;;;;;11.50;99.90;;;;;;4248406;27;20058;-58
2023/10/15 04:51:42;;;;;;;6.35;2.08;;;11.50;99.90;;;;;;4247582;27;19964;-57
2023/10/15 04:53:44;;;;;;;7.95;2.40;;;11.50;99.90;;;;;;4248311;27;20469;-58
2023/10/15 04:55:48;;;;;;;3.95;1.73;;;11.50;99.90;;;;;;4248282;27;20047;-57
2023/10/15 04:57:51;;;;;;;7.13;2.30;;;11.50;99.90;;;;;;4247855;27;20059;-57
2023/10/15 04:59:53;;;;;;;4.85;2.00;;;11.50;99.90;;;;;;4229686;28;20498;-57
2023/10/15 05:01:56;;;;;;;5.22;2.05;;;11.50;99.90;;;;;;4247590;27;20143;-57
2023/10/15 05:04:00;;;;;;;4.50;1.90;;;11.60;99.90;;;;;;4247753;27;20107;-57
2023/10/15 05:06:03;;;;;;;8.35;2.28;;;11.60;99.90;;;;;;4247922;27;20111;-57
2023/10/15 05:08:10;;;;;;;4.43;1.92;;;11.60;99.90;;;;;;4247458;27;20071;-58
2023/10/15 05:10:13;;;;;;;5.25;1.98;;;11.60;99.90;;;;;;4247319;27;20047;-57
2023/10/15 05:12:15;;;;;;;5.10;2.15;;;11.70;99.90;;;;;;4247413;27;20054;-57
2023/10/15 05:14:17;;;;;;;7.35;2.17;;;11.70;99.90;;;;;;4229122;28;20420;-57
2023/10/15 05:16:19;;;;;;;6.22;2.22;;;11.60;99.90;;;;;;4229110;28;20113;-57
2023/10/15 05:18:23;;;;;;;5.40;2.45;;;11.70;99.80;;;;;;4247517;27;20086;-57
2023/10/15 05:20:25;;;;;;;7.13;1.75;;;11.60;99.60;;;;;;4246924;27;20044;-55
2023/10/15 05:22:27;;;;;;;2.92;1.73;;;11.70;99.90;;;;;;4247340;28;20046;-57
2023/10/15 05:24:30;;;;;;;2.47;1.52;;;11.70;99.90;;;;;;4247499;28;20119;-56
2023/10/15 05:26:32;;;;;;;6.15;2.10;;;11.70;99.90;;;;;;4246995;28;20084;-57
2023/10/15 05:28:34;;;;;;;7.40;2.03;;;11.70;99.90;;;;;;4247252;28;20071;-57
2023/10/15 05:30:37;;;;;;;7.47;2.25;;;11.60;99.90;;;;;;4247210;28;20134;-57
2023/10/15 05:32:40;;;;;;;5.25;2.50;;;11.60;99.90;;;;;;4247481;28;20047;-57
2023/10/15 05:34:43;;;;;;;6.43;2.20;;;11.60;99.90;;;;;;4247468;28;20568;-57
2023/10/15 05:36:46;;;;;;;6.50;1.80;;;11.50;99.90;;;;;;4247497;28;20070;-57
2023/10/15 05:38:48;;;;;;;6.75;1.75;;;11.50;99.90;;;;;;4247425;28;20051;-57
2023/10/15 05:40:59;;;;;;;6.85;2.35;;;11.40;99.90;;;;;;4228630;28;20141;-57
2023/10/15 05:43:01;;;;;;;7.43;2.03;;;11.40;99.90;;;;;;4247422;28;20120;-56
2023/10/15 05:45:07;;;;;;;6.60;1.73;;;11.30;99.90;;;;;;4247902;28;20043;-57
2023/10/15 05:47:09;;;;;;;5.50;1.45;;;11.40;99.90;;;;;;4247270;28;20047;-56
2023/10/15 05:49:11;;;;;;;4.30;1.75;;;11.30;99.90;;;;;;4247368;28;20096;-57
2023/10/15 05:51:15;;;;;;;6.72;2.58;;;11.30;99.90;;;;;;4246970;28;20047;-57
2023/10/15 05:53:17;;;;;;;4.65;2.30;;;11.20;99.90;;;;;;4247451;28;20110;-57
2023/10/15 05:55:19;;;;;;;6.28;1.77;;;11.20;99.90;;;;;;4246931;28;20044;-57
2023/10/15 05:57:22;;;;;;;4.95;2.20;;;11.20;99.90;;;;;;4247062;28;20047;-57
2023/10/15 05:59:24;;;;;;;7.90;2.17;;;11.20;99.90;;;;;;4247488;27;20057;-57
2023/10/15 06:01:26;;;;;;;4.88;2.05;;;11.20;99.90;;;;;;4264370;27;20043;-56
2023/10/15 06:03:29;;;;;;;3.45;1.67;;;11.20;99.90;;;;;;4264345;27;20043;-56
2023/10/15 06:05:31;;;;;;;4.97;2.03;;;11.30;99.90;;;;;;4264262;27;20074;-56
2023/10/15 06:07:34;;;;;;;4.30;2.38;;;11.30;99.90;;;;;;4264430;27;20123;-57
2023/10/15 06:09:36;;;;;;;3.85;1.70;;;11.20;99.90;;;;;;4264028;27;20462;-57
2023/10/15 06:11:38;;;;;;;6.78;2.15;;;11.10;99.90;;;;;;4264536;27;20126;-55
2023/10/15 06:13:40;;;;;;;6.78;2.08;;;11.20;99.90;;;;;;4264473;27;20053;-57
2023/10/15 06:15:42;;;;;;;4.22;2.13;;;11.10;99.90;;;;;;4264654;27;20082;-56
2023/10/15 06:17:46;;;;;;;8.90;2.38;;;11.00;99.90;;;;;;4264285;27;20062;-57
2023/10/15 06:19:49;;;;;;;4.13;2.03;;;11.00;99.90;;;;;;4264024;27;20042;-57
2023/10/15 06:21:51;;;;;;;6.25;2.08;;;11.00;99.90;;;;;;4264023;27;20598;-57
2023/10/15 06:23:55;;;;;;;4.38;2.03;;;11.10;99.90;;;;;;4263664;27;20047;-56
2023/10/15 06:25:57;;;;;;;5.80;2.15;;;11.10;99.90;;;;;;4264364;27;20119;-57
2023/10/15 06:28:01;;;;;;;4.28;2.20;;;11.10;99.90;;;;;;4264301;27;20042;-57
2023/10/15 06:30:14;;;;;;;3.47;1.90;;;11.10;99.90;;;;;;4263951;27;20058;-57
2023/10/15 06:32:16;;;;;;;5.00;1.88;;;11.20;99.90;;;;;;4230813;28;20043;-57
2023/10/15 06:34:18;;;;;;;3.92;1.80;;;11.20;99.90;;;;;;4267434;27;20042;-57
2023/10/15 06:36:20;;;;;;;5.63;1.90;;;11.10;99.90;;;;;;4268243;27;20043;-65
2023/10/15 06:38:22;;;;;;;4.70;2.00;;;11.10;99.90;;;;;;4267912;27;20515;-56
2023/10/15 06:40:30;;;;;;;7.43;2.08;;;11.10;99.90;;;;;;4249707;27;20047;-61
2023/10/15 06:42:33;;;;;;;6.43;2.03;;;11.10;99.90;;;;;;4267808;27;20038;-58
2023/10/15 06:44:35;;;;;;;8.43;2.22;;;11.10;99.90;;;;;;4267963;27;20476;-60
2023/10/15 06:46:38;;;;;;;6.47;2.35;;;11.10;99.90;;;;;;4266808;27;20042;-57
2023/10/15 06:48:41;;;;;;;7.30;2.40;;;11.20;99.90;;;;;;4266919;27;20496;-57
2023/10/15 06:50:43;;;;;;;4.95;1.95;;;11.20;99.90;;;;;;4248492;27;20051;-57
2023/10/15 06:52:46;;;;;;;8.07;1.92;;;11.10;99.90;;;;;;4266514;27;20405;-58
2023/10/15 06:54:48;;;;;;;4.95;2.10;;;11.10;99.90;;;;;;4266477;27;20118;-57
2023/10/15 06:56:51;;;;;;;6.05;2.45;;;11.20;99.90;;;;;;4266849;27;20043;-57
2023/10/15 06:58:54;;;;;;;5.57;1.98;;;11.20;99.90;;;;;;4266807;27;20039;-56
2023/10/15 07:00:56;;;;;;;10.00;2.45;;;11.20;99.90;;;;;;4266615;27;20047;-57
2023/10/15 07:02:59;;;;;;;7.43;2.20;;;11.30;99.90;;;;;;4266689;27;20127;-57
2023/10/15 07:05:02;;;;;;;5.47;2.20;;;11.40;99.90;;;;;;4266389;27;20047;-56
2023/10/15 07:07:04;;;;;;;3.28;1.70;;;11.40;99.90;;;;;;4266488;27;20042;-57
2023/10/15 07:09:06;;;;;;;3.78;1.90;;;11.40;99.90;;;;;;4248042;27;20047;-57
2023/10/15 07:11:08;;;;;;;6.20;2.25;;;11.50;99.90;;;;;;4266650;27;20046;-57
2023/10/15 07:13:12;;;;;;;8.23;2.00;;;11.50;99.90;;;;;;4266248;27;20484;-57
2023/10/15 07:15:15;;;;;;;6.43;2.17;;;11.50;99.90;;;;;;4248201;27;20070;-56
2023/10/15 07:17:17;;;;;;;3.08;1.70;;;11.50;99.90;;;;;;4266170;27;20441;-57
2023/10/15 07:19:20;;;;;;;4.05;1.70;;;11.60;99.90;;;;;;4266355;27;20049;-57
2023/10/15 07:21:22;;;;;;;5.78;2.10;;;11.70;99.70;;;;;;4266463;27;20057;-57
2023/10/15 07:23:25;;;;;;;5.53;1.90;;;11.80;99.70;;;;;;4265894;27;20038;-57
2023/10/15 07:25:27;;;;;;;8.30;2.03;;;11.80;99.60;;;;;;4266407;27;20039;-56
2023/10/15 07:27:29;;;;;;;4.07;1.75;;;11.80;99.40;;;;;;4266290;27;20046;-56
2023/10/15 07:29:32;;;;;;;3.40;1.80;;;11.80;99.40;;;;;;4266155;27;20045;-57
2023/10/15 07:31:38;;;;;;;4.20;1.55;;;11.90;99.20;;;;;;4266281;27;20057;-57
2023/10/15 07:33:40;;;;;;;7.10;2.30;;;12.00;99.20;;;;;;4265972;27;20046;-57
2023/10/15 07:35:42;;;;;;;6.47;2.13;;;12.00;98.90;;;;;;4266130;27;20057;-57
2023/10/15 07:37:46;;;;;;;6.60;2.42;;;12.00;99.00;;;;;;4265757;27;20133;-59
2023/10/15 07:39:48;;;;;;;5.63;2.07;;;12.10;98.70;;;;;;4266056;27;20517;-56
2023/10/15 07:41:51;;;;;;;6.90;1.83;;;12.10;98.70;;;;;;4265815;27;20468;-57
2023/10/15 07:43:53;;;;;;;9.20;2.20;;;12.10;98.80;;;;;;4265954;27;20042;-57
2023/10/15 07:45:57;;;;;;;5.95;1.52;;;12.20;98.50;;;;;;4266081;27;20483;-57
2023/10/15 07:48:01;;;;;;;6.47;2.10;;;12.20;98.40;;;;;;4265876;27;20046;-57
2023/10/15 07:50:05;;;;;;;5.38;1.80;;;12.10;97.80;;;;;;4265803;27;20126;-57
2023/10/15 07:52:07;;;;;;;4.82;1.90;;;12.00;98.40;;;;;;4265514;27;20095;-57
2023/10/15 07:54:09;;;;;;;5.75;2.03;;;12.00;98.70;;;;;;4266006;27;20046;-57
2023/10/15 07:56:14;;;;;;;4.03;1.73;;;12.10;98.60;;;;;;4265858;27;20043;-57
2023/10/15 07:58:16;;;;;;;5.35;1.85;;;12.20;98.30;;;;;;4247546;27;20043;-57
2023/10/15 08:00:26;;;;;;;6.93;1.90;;;12.40;98.10;;;;;;4265832;27;20404;-56
2023/10/15 08:02:30;;;;;;;10.95;2.15;;;12.50;97.70;;;;;;4265885;27;20047;-57
2023/10/15 08:04:34;;;;;;;5.27;2.03;;;12.40;97.70;;;;;;4265974;27;20121;-57
2023/10/15 08:06:36;;;;;;;6.45;2.10;;;12.40;97.50;;;;;;4265469;27;20056;-57
2023/10/15 08:08:39;;;;;;;4.60;1.67;;;12.40;97.80;;;;;;4265711;27;20495;-57
2023/10/15 08:10:41;;;;;;;7.95;2.05;;;12.40;97.70;;;;;;4265373;27;20049;-56
2023/10/15 08:12:44;;;;;;;5.35;1.92;;;12.30;97.60;;;;;;4265623;27;20072;-58
2023/10/15 08:14:50;;;;;;;10.38;2.00;;;12.30;97.70;;;;;;4265402;27;20039;-58
2023/10/15 08:16:52;;;;;;;6.40;2.03;;;12.40;97.30;;;;;;4265460;27;20098;-57
2023/10/15 08:18:55;;;;;;;6.43;2.00;;;12.50;96.90;;;;;;4265395;27;20461;-57
2023/10/15 08:20:57;;;;;;;4.72;1.77;;;12.40;97.30;;;;;;4265494;27;20050;-57
2023/10/15 08:23:00;;;;;;;5.68;1.75;;;12.40;97.30;;;;;;4265401;27;20074;-56
2023/10/15 08:25:03;;;;;;;4.18;1.58;;;12.60;97.10;;;;;;4265636;27;20106;-57
2023/10/15 08:27:06;;;;;;;4.45;1.45;;;12.70;96.70;;;;;;4266392;27;20053;-58
2023/10/15 08:29:09;;;;;;;3.92;1.48;;;12.80;96.60;;;;;;4267394;27;20050;-58
2023/10/15 08:31:12;;;;;;;8.05;1.80;;;12.80;96.90;;;;;;4266470;27;20051;-57
2023/10/15 08:33:14;;;;;;;3.85;1.35;;;12.80;96.60;;;;;;4265273;27;20060;-57
2023/10/15 08:35:18;;;;;;;6.85;1.63;;;12.80;96.60;;;;;;4265108;27;20065;-57
2023/10/15 08:37:20;;;;;;;7.07;1.92;;;12.90;96.20;;;;;;4265364;27;20091;-58
2023/10/15 08:39:23;;;;;;;5.63;1.58;;;12.80;96.20;;;;;;4265417;27;20050;-57
2023/10/15 08:41:27;;;;;;;7.80;1.83;;;12.90;95.90;;;;;;4265363;27;20500;-57
2023/10/15 08:43:32;;;;;;;7.43;1.45;;;12.90;95.90;;;;;;4248561;27;20437;-65
2023/10/15 08:45:35;;;;;;;;;;;12.90;95.90;;;;;;4266653;27;20114;-59
2023/10/15 08:47:39;;;;;;;7.95;2.17;;;12.80;95.80;;;;;;4266571;27;20276;-58
2023/10/15 08:49:46;;;;;;;5.10;1.77;;;12.80;96.00;;;;;;4266294;27;20091;-57
2023/10/15 08:51:50;;;;;;;5.10;1.48;;;12.80;95.50;;;;;;4265427;27;20050;-57
2023/10/15 08:53:57;;;;;;;4.30;1.13;;;12.80;96.10;;;;;;4264656;27;20145;-57
2023/10/15 08:56:01;;;;;;;7.10;1.88;;;12.90;95.70;;;;;;4265205;27;20046;-57
2023/10/15 08:58:06;;;;;;;7.18;1.60;;;13.00;94.90;;;;;;4265250;27;20047;-57
2023/10/15 09:00:25;;;;;;;2.78;1.50;;;13.10;94.90;;;;;;4265129;27;20046;-57
2023/10/15 09:02:34;;;;;;;5.25;0.95;;;13.10;94.80;;;;;;4264896;27;20072;-56
2023/10/15 09:04:37;;;;;;;4.65;1.40;;;13.10;94.70;;;;;;4264646;27;20495;-57
2023/10/15 09:06:40;;;;;;;8.60;1.50;;;13.20;95.00;;;;;;4264963;27;20046;-57
2023/10/15 09:08:43;;;;;;;6.15;1.17;;;13.20;94.20;;;;;;4265096;27;20047;-55
2023/10/15 09:10:52;;;;;;;7.32;2.15;;;13.20;94.50;;;;;;4264897;27;20068;-55
2023/10/15 09:12:55;;;;;;;5.25;1.40;;;13.20;94.10;;;;;;4264855;27;20046;-57
2023/10/15 09:14:58;;;;;;;5.50;1.25;;;13.10;93.90;;;;;;4265019;27;20042;-57
2023/10/15 09:17:00;;;;;;;5.43;1.67;;;13.20;93.70;;;;;;4264600;27;20049;-62
2023/10/15 09:19:06;;;;;;;4.57;1.40;;;13.10;93.30;;;;;;4246289;27;20122;-57
2023/10/15 09:21:09;;;;;;;6.28;1.13;;;13.10;93.20;;;;;;4265042;27;20379;-58
2023/10/15 09:23:11;;;;;;;5.00;1.42;;;13.10;93.30;;;;;;4265018;27;20469;-57
2023/10/15 09:25:15;;;;;;;5.95;1.67;;;13.20;93.20;;;;;;4264795;27;20050;-57
2023/10/15 09:27:17;;;;;;;8.15;1.50;;;13.20;92.90;;;;;;4264753;27;20066;-57
2023/10/15 09:29:19;;;;;;;6.32;1.60;;;13.20;92.80;;;;;;4264675;27;20054;-59
2023/10/15 09:31:25;;;;;;;4.53;1.30;;;13.20;92.70;;;;;;4264640;27;20509;-55
2023/10/15 09:33:28;;;;;;;4.97;1.30;;;13.20;92.60;;;;;;4264590;27;20038;-56
2023/10/15 09:35:30;;;;;;;6.72;1.60;;;13.30;92.40;;;;;;4264598;27;20042;-56
2023/10/15 09:37:32;;;;;;;8.32;1.67;;;13.40;92.20;;;;;;4264997;27;20050;-57
2023/10/15 09:39:35;;;;;;;8.55;1.95;;;13.50;92.00;;;;;;4264737;27;20126;-57
2023/10/15 09:41:40;;;;;;;7.03;2.70;;;13.60;91.90;;;;;;4264463;27;20092;-56
2023/10/15 09:43:44;;;;;;;6.07;1.45;;;13.50;92.00;;;;;;4264978;27;20066;-57
2023/10/15 09:45:46;;;;;;;6.13;1.45;;;13.60;92.00;;;;;;4265431;27;20145;-59
2023/10/15 09:47:49;;;;;;;3.35;1.17;;;13.60;91.90;;;;;;4265530;27;20087;-56
2023/10/15 09:49:53;;;;;;;8.57;1.13;;;13.60;91.00;;;;;;4267440;27;20046;-60
2023/10/15 09:51:55;;;;;;;2.92;1.13;;;13.40;90.90;;;;;;4266813;27;20088;-57
2023/10/15 09:53:59;;;;;;;3.80;0.98;;;13.40;91.50;;;;;;4265155;27;20070;-56
2023/10/15 09:56:07;;;;;;;8.48;1.45;;;13.40;91.10;;;;;;4264377;27;20101;-59
2023/10/15 09:58:12;;;;;;;4.65;1.35;;;13.50;91.10;;;;;;4264523;27;20042;-59
2023/10/15 10:00:19;;;;;;;3.55;1.42;;;13.40;90.90;;;;;;4264808;27;20054;-57
2023/10/15 10:02:32;;;;;;;2.75;1.20;;;13.50;90.90;;;;;;4264356;27;20046;-57
2023/10/15 10:05:05;;;;;;;3.92;1.00;;;13.50;90.00;;;;;;4265074;27;20122;-57
2023/10/15 10:07:43;;;;;;;4.32;1.10;;;13.50;89.80;;;;;;4267611;27;20608;-56
2023/10/15 10:10:21;;;;;;;4.55;1.30;;;13.50;90.30;;;;;;4267480;27;20050;-56
2023/10/15 10:12:35;;;;;;;4.20;1.10;;;13.60;90.40;;;;;;4267668;27;20047;-56
2023/10/15 10:14:58;;;;;;;2.67;1.02;;;13.70;89.70;;;;;;4267554;27;20062;-56
2023/10/15 10:17:02;;;;;;;5.88;1.73;;;13.90;88.70;;;;;;4248637;27;20039;-57
2023/10/15 10:19:08;;;;;;;2.75;1.42;;;13.80;89.80;;;;;;4267944;27;20434;-57
2023/10/15 10:21:15;;;;;;;2.40;0.85;;;13.80;89.70;;;;;;4267828;27;20473;-56
2023/10/15 10:23:18;;;;;;;3.40;1.15;;;13.80;89.30;;;;;;4267458;27;20475;-56
2023/10/15 10:25:30;;;;;;;3.47;0.90;;;13.80;88.40;;;;;;4267570;27;20045;-58
2023/10/15 10:27:40;;;;;;;3.33;1.25;;;13.70;88.00;;;;;;4267206;27;20488;-58
2023/10/15 10:29:43;;;;;;;2.47;1.00;;;13.70;88.50;;;;;;4246395;27;20059;-58
2023/10/15 10:31:49;;;;;;;2.67;0.93;;;13.70;90.10;;;;;;4266470;27;20051;-59
2023/10/15 10:33:54;;;;;;;3.65;1.13;;;13.80;89.50;;;;;;4262519;27;20059;-57
2023/10/15 10:36:09;;;;;;;4.25;1.55;;;13.90;88.40;;;;;;4266931;27;20438;-56
2023/10/15 10:38:17;;;;;;;;;;;14.00;87.30;;;;;;4267993;27;20046;-56
2023/10/15 10:40:45;;;;;;;2.33;0.95;;;13.90;85.90;;;;;;4249089;27;19958;-59
2023/10/15 10:43:00;;;;;;;3.15;1.08;;;14.00;87.00;;;;;;4248831;27;20043;-57
2023/10/15 10:45:02;;;;;;;2.90;1.35;;;14.10;87.30;;;;;;4248435;27;20476;-58
2023/10/15 10:47:19;;;;;;;3.15;1.20;;;14.10;87.10;;;;;;4267127;27;20487;-58
2023/10/15 10:49:28;;;;;;;3.55;1.10;;;14.20;86.10;;;;;;4266737;27;20057;-56
2023/10/15 10:51:33;;;;;;;3.70;1.05;;;14.30;86.30;;;;;;4266596;27;20054;-56
2023/10/15 10:53:35;;;;;;;;;;;14.20;86.60;;;;;;4267624;27;20453;-57
2023/10/15 10:55:37;;;;;;;3.65;1.00;;;14.30;86.30;;;;;;4266936;27;19926;-56
2023/10/15 10:57:41;;;;;;;2.75;1.17;;;14.30;86.00;;;;;;4266984;27;20070;-56
2023/10/15 10:59:44;;;;;;;;;;;14.10;85.30;;;;;;4267233;27;20054;-56
2023/10/15 11:01:46;;;;;;;3.53;0.95;;;14.10;84.70;;;;;;4266981;27;20313;-57